Time;durP1;ratioP1;P1;durP2;ratioP2;P2;SDS_P1;SDS_P2;PMS_P1;PMS_P2;Temp;Humidity;BMP_temperature;BMP_pressure;BME280_temperature;BME280_humidity;BME280_pressure;Samples;Min_cycle;Max_cycle;Signal;HPM_P1;HPM_P2
2022/12/06 00:01:08;;;;;;;20.30;4.97;;;5.20;99.90;;;;;;5094005;28;20133;-81
2022/12/06 00:03:35;;;;;;;20.50;5.68;;;5.20;99.90;;;;;;5145154;27;20054;-83
2022/12/06 00:06:10;;;;;;;23.27;5.53;;;5.20;99.90;;;;;;5132151;28;20130;-83
2022/12/06 00:08:37;;;;;;;19.08;4.97;;;5.20;99.90;;;;;;5113001;28;20126;-80
2022/12/06 00:11:09;;;;;;;17.70;5.80;;;5.20;99.90;;;;;;5132147;28;20051;-83
2022/12/06 00:13:35;;;;;;;23.40;6.05;;;5.20;99.90;;;;;;5129514;28;20086;-81
2022/12/06 00:16:07;;;;;;;20.17;5.50;;;5.20;99.90;;;;;;5148640;27;20031;-81
2022/12/06 00:18:34;;;;;;;18.35;4.82;;;5.10;99.90;;;;;;5132684;27;20083;-82
2022/12/06 00:21:14;;;;;;;;;;;5.10;99.90;;;;;;5153583;27;20047;-81
2022/12/06 00:23:43;;;;;;;29.15;6.55;;;5.10;99.90;;;;;;5151929;27;19920;-81
2022/12/06 00:26:10;;;;;;;21.27;5.50;;;5.10;99.90;;;;;;5154491;27;20039;-81
2022/12/06 00:28:36;;;;;;;22.02;5.65;;;5.10;99.90;;;;;;5132114;27;20439;-83
2022/12/06 00:31:05;;;;;;;21.95;5.47;;;5.10;99.90;;;;;;5133658;27;20063;-82
2022/12/06 00:33:33;;;;;;;24.35;4.80;;;5.20;99.90;;;;;;5152322;27;20046;-83
2022/12/06 00:36:01;;;;;;;26.40;4.85;;;5.10;99.90;;;;;;5133869;27;20038;-83
2022/12/06 00:38:28;;;;;;;22.70;6.07;;;5.10;99.90;;;;;;5145656;27;20160;-79
2022/12/06 00:40:59;;;;;;;17.27;4.68;;;5.10;99.90;;;;;;5143523;27;20039;-83
2022/12/06 00:43:25;;;;;;;19.35;5.10;;;5.10;99.90;;;;;;5130067;27;20479;-80
2022/12/06 00:45:51;;;;;;;21.17;4.30;;;5.10;99.90;;;;;;5144455;27;20184;-81
2022/12/06 00:48:17;;;;;;;15.77;4.05;;;5.10;99.90;;;;;;5110603;27;20066;-80
2022/12/06 00:50:42;;;;;;;21.33;4.03;;;5.10;99.90;;;;;;5123021;27;20512;-80
2022/12/06 00:53:08;;;;;;;24.10;4.63;;;5.10;99.90;;;;;;5125550;27;20128;-81
2022/12/06 00:55:34;;;;;;;15.80;4.07;;;5.10;99.90;;;;;;5131621;27;20027;-83
2022/12/06 00:58:00;;;;;;;19.80;4.60;;;5.10;99.90;;;;;;5130945;27;20043;-79
2022/12/06 01:00:26;;;;;;;16.65;4.13;;;5.10;99.90;;;;;;5148041;27;20054;-79
2022/12/06 01:02:52;;;;;;;17.27;4.22;;;5.10;99.90;;;;;;5132731;27;20066;-79
2022/12/06 01:05:18;;;;;;;17.13;4.55;;;5.10;99.90;;;;;;5114035;28;20036;-79
2022/12/06 01:07:44;;;;;;;12.05;3.50;;;5.10;99.90;;;;;;5107830;28;20054;-79
2022/12/06 01:10:10;;;;;;;17.67;4.00;;;5.10;99.90;;;;;;5125433;28;20533;-79
2022/12/06 01:12:36;;;;;;;14.00;3.67;;;5.10;99.90;;;;;;5128697;28;20531;-81
2022/12/06 01:15:01;;;;;;;18.88;3.85;;;5.10;99.90;;;;;;5128083;27;20051;-81
2022/12/06 01:17:27;;;;;;;10.82;3.33;;;5.20;99.90;;;;;;5123259;28;20122;-79
2022/12/06 01:19:53;;;;;;;19.73;4.22;;;5.20;99.90;;;;;;5124717;28;20048;-81
2022/12/06 01:22:18;;;;;;;16.92;4.07;;;5.20;99.90;;;;;;5119433;28;20040;-78
2022/12/06 01:24:46;;;;;;;18.40;3.78;;;5.30;99.90;;;;;;5119326;28;20043;-80
2022/12/06 01:27:12;;;;;;;21.23;5.50;;;5.20;99.90;;;;;;5115850;28;20141;-78
2022/12/06 01:29:38;;;;;;;16.55;4.78;;;5.20;99.90;;;;;;5101707;28;20047;-78
2022/12/06 01:32:04;;;;;;;18.35;4.40;;;5.20;99.90;;;;;;5119102;28;20043;-79
2022/12/06 01:34:29;;;;;;;24.63;5.30;;;5.10;99.90;;;;;;5104580;28;20058;-78
2022/12/06 01:36:55;;;;;;;19.15;5.18;;;5.20;99.90;;;;;;5120909;28;20067;-78
2022/12/06 01:39:21;;;;;;;18.23;5.82;;;5.20;99.90;;;;;;5088770;28;20143;-77
2022/12/06 01:41:46;;;;;;;17.75;5.00;;;5.20;99.90;;;;;;5120277;28;20040;-78
2022/12/06 01:44:39;;;;;;;17.48;5.70;;;5.10;99.90;;;;;;5125368;28;20039;-79
2022/12/06 01:47:30;;;;;;;23.60;4.72;;;5.10;99.90;;;;;;5104586;28;20059;-79
2022/12/06 01:50:12;;;;;;;22.20;5.53;;;5.10;99.90;;;;;;5123565;28;20128;-78
2022/12/06 01:52:50;;;;;;;20.73;4.88;;;5.10;99.90;;;;;;5101434;28;20059;-78
2022/12/06 01:55:18;;;;;;;22.52;5.43;;;5.10;99.90;;;;;;5123913;28;20047;-78
2022/12/06 01:57:44;;;;;;;17.15;5.07;;;5.10;99.90;;;;;;5127468;28;20517;-80
2022/12/06 02:00:09;;;;;;;19.10;4.53;;;5.20;99.90;;;;;;5103154;28;20047;-78
2022/12/06 02:02:36;;;;;;;20.92;4.28;;;5.10;99.90;;;;;;5119755;28;20054;-77
2022/12/06 02:05:02;;;;;;;17.40;4.53;;;5.10;99.90;;;;;;5115052;28;20056;-77
2022/12/06 02:07:28;;;;;;;17.05;3.75;;;5.10;99.90;;;;;;5121207;28;20134;-80
2022/12/06 02:09:55;;;;;;;20.38;4.18;;;5.10;99.90;;;;;;5124528;28;20047;-82
2022/12/06 02:12:21;;;;;;;19.80;4.05;;;5.10;99.90;;;;;;5116804;28;20476;-82
2022/12/06 02:14:50;;;;;;;20.88;4.13;;;5.10;99.90;;;;;;5116878;28;20085;-82
2022/12/06 02:17:47;;;;;;;19.40;5.00;;;4.90;99.90;;;;;;5118412;28;20043;-81
2022/12/06 02:20:29;;;;;;;18.75;5.25;;;5.00;99.90;;;;;;5120038;28;20440;-81
2022/12/06 02:23:10;;;;;;;18.30;3.90;;;5.00;99.90;;;;;;5123346;28;20058;-84
2022/12/06 02:25:58;;;;;;;16.95;4.20;;;4.90;99.90;;;;;;5117414;28;20054;-83
2022/12/06 02:29:00;;;;;;;15.82;3.83;;;5.00;99.90;;;;;;5119677;28;20046;-83
2022/12/06 02:31:34;;;;;;;15.60;4.55;;;4.90;99.90;;;;;;5129238;28;20073;-80
2022/12/06 02:34:06;;;;;;;12.20;2.70;;;4.90;99.90;;;;;;5130122;28;20108;-85
2022/12/06 02:36:45;;;;;;;9.65;2.25;;;4.90;99.90;;;;;;5128915;28;20047;-84
2022/12/06 02:39:35;;;;;;;11.35;2.42;;;4.90;99.90;;;;;;5103349;28;20058;-83
2022/12/06 02:42:35;;;;;;;8.65;1.90;;;4.80;99.90;;;;;;5118114;28;20051;-81
2022/12/06 02:45:16;;;;;;;12.13;2.40;;;4.80;99.90;;;;;;5111551;28;20047;-84
2022/12/06 02:47:43;;;;;;;10.73;1.92;;;4.80;99.90;;;;;;5115845;28;20040;-85
2022/12/06 02:50:15;;;;;;;6.53;1.40;;;4.70;99.90;;;;;;5118978;28;20048;-84
2022/12/06 02:52:43;;;;;;;8.85;1.40;;;4.70;99.90;;;;;;5123032;28;20044;-84
2022/12/06 02:55:10;;;;;;;8.65;1.65;;;4.70;99.90;;;;;;5118690;28;20055;-81
2022/12/06 02:57:40;;;;;;;8.18;1.38;;;4.70;99.90;;;;;;5117078;28;20047;-85
2022/12/06 03:00:38;;;;;;;6.65;1.48;;;4.70;99.90;;;;;;5118283;28;20100;-80
2022/12/06 03:03:13;;;;;;;9.15;1.70;;;4.70;99.90;;;;;;5098536;28;20558;-83
2022/12/06 03:05:51;;;;;;;7.25;1.67;;;4.70;99.90;;;;;;5114509;28;20052;-82
2022/12/06 03:08:29;;;;;;;11.32;2.38;;;4.70;99.90;;;;;;5117492;28;20067;-81
2022/12/06 03:11:00;;;;;;;9.52;2.15;;;4.70;99.90;;;;;;5120000;28;20047;-83
2022/12/06 03:13:40;;;;;;;11.00;2.53;;;4.60;99.90;;;;;;5122458;28;20051;-84
2022/12/06 03:16:52;;;;;;;8.07;2.00;;;4.60;99.90;;;;;;5118956;28;20487;-84
2022/12/06 03:19:24;;;;;;;11.25;2.30;;;4.60;99.90;;;;;;5086334;28;20060;-82
2022/12/06 03:22:19;;;;;;;5.85;1.70;;;4.60;99.90;;;;;;5122311;28;20039;-81
2022/12/06 03:24:46;;;;;;;12.75;3.58;;;4.60;99.90;;;;;;5120361;28;20112;-80
2022/12/06 03:27:17;;;;;;;14.50;2.30;;;4.60;99.90;;;;;;5121807;28;20372;-81
2022/12/06 03:29:55;;;;;;;14.90;3.50;;;4.60;99.90;;;;;;5118562;28;20062;-80
2022/12/06 03:32:26;;;;;;;12.65;3.22;;;4.60;99.90;;;;;;5117852;28;20056;-81
2022/12/06 03:34:56;;;;;;;13.93;3.25;;;4.70;99.90;;;;;;5116800;28;20043;-81
2022/12/06 03:37:24;;;;;;;12.02;2.90;;;4.60;99.90;;;;;;5115022;28;20094;-81
2022/12/06 03:40:08;;;;;;;12.15;3.20;;;4.60;99.90;;;;;;5113430;28;20090;-81
2022/12/06 03:42:35;;;;;;;19.60;3.78;;;4.60;99.90;;;;;;5116661;28;20454;-81
2022/12/06 03:45:01;;;;;;;13.48;3.38;;;4.60;99.90;;;;;;5117025;28;20040;-80
2022/12/06 03:47:39;;;;;;;12.55;3.03;;;4.60;99.90;;;;;;5118701;28;20055;-80
2022/12/06 03:50:30;;;;;;;13.27;3.58;;;4.50;99.90;;;;;;5119726;28;20051;-80
2022/12/06 03:52:56;;;;;;;24.17;4.25;;;4.60;99.90;;;;;;5116370;28;20134;-80
2022/12/06 03:55:22;;;;;;;17.25;3.53;;;4.60;99.90;;;;;;5118992;28;20051;-82
2022/12/06 03:57:47;;;;;;;14.63;3.38;;;4.50;99.90;;;;;;5121407;28;20087;-80
2022/12/06 04:00:15;;;;;;;11.48;3.47;;;4.50;99.90;;;;;;5102412;28;20379;-80
2022/12/06 04:02:41;;;;;;;20.00;2.90;;;4.50;99.90;;;;;;5118746;28;20048;-81
2022/12/06 04:05:07;;;;;;;20.60;3.65;;;4.50;99.90;;;;;;5131188;28;20268;-81
2022/12/06 04:07:33;;;;;;;14.73;3.75;;;4.50;99.90;;;;;;5135869;28;20091;-81
2022/12/06 04:10:02;;;;;;;15.82;3.83;;;4.40;99.90;;;;;;5135160;28;20376;-81
2022/12/06 04:15:19;;;;;;;17.70;3.15;;;4.40;99.90;;;;;;5116831;28;20429;-81
2022/12/06 04:23:02;;;;;;;17.77;3.70;;;4.40;99.90;;;;;;5135112;28;20048;-81
2022/12/06 04:23:19;;;;;;;15.35;3.13;;;4.40;99.90;;;;;;5120122;28;20092;-81
2022/12/06 04:25:45;;;;;;;19.52;3.75;;;4.40;99.90;;;;;;5134330;28;20046;-80
2022/12/06 04:39:09;;;;;;;14.02;3.40;;;4.30;99.90;;;;;;5119636;28;20346;-79
2022/12/06 04:44:19;;;;;;;13.15;2.85;;;4.40;99.90;;;;;;5135103;28;20059;-81
2022/12/06 04:46:44;;;;;;;12.88;2.80;;;4.40;99.90;;;;;;5083066;28;20153;-80
2022/12/06 04:49:10;;;;;;;9.65;2.45;;;4.40;99.90;;;;;;5116213;28;20043;-80
2022/12/06 04:51:36;;;;;;;13.20;2.65;;;4.40;99.90;;;;;;5134319;28;20043;-80
2022/12/06 04:54:01;;;;;;;12.13;2.72;;;4.40;99.90;;;;;;5098751;28;20050;-80
2022/12/06 04:56:27;;;;;;;11.57;2.40;;;4.30;99.90;;;;;;5116094;28;20087;-82
2022/12/06 04:58:53;;;;;;;10.25;2.38;;;4.30;99.90;;;;;;5134881;28;20036;-81
2022/12/06 05:01:19;;;;;;;12.85;3.42;;;4.30;99.90;;;;;;5115582;28;20035;-80
2022/12/06 05:03:44;;;;;;;10.70;2.47;;;4.30;99.90;;;;;;5138534;27;20090;-81
2022/12/06 05:06:10;;;;;;;11.98;2.55;;;4.20;99.90;;;;;;5120278;27;20467;-81
2022/12/06 05:08:36;;;;;;;8.98;2.70;;;4.20;99.90;;;;;;5119682;27;20103;-81
2022/12/06 05:11:01;;;;;;;12.43;2.58;;;4.20;99.90;;;;;;5120288;27;20072;-81
2022/12/06 05:13:27;;;;;;;10.48;2.83;;;4.20;99.90;;;;;;5137808;27;20035;-81
2022/12/06 05:15:56;;;;;;;12.93;2.90;;;4.20;99.90;;;;;;5120925;27;20039;-80
2022/12/06 05:18:23;;;;;;;13.23;2.80;;;4.10;99.90;;;;;;5122142;27;20103;-79
2022/12/06 05:20:50;;;;;;;17.40;2.55;;;4.10;99.90;;;;;;5139562;27;20043;-80
2022/12/06 05:23:16;;;;;;;11.43;2.72;;;4.10;99.90;;;;;;5120702;27;20043;-80
2022/12/06 05:25:42;;;;;;;11.55;2.75;;;4.10;99.90;;;;;;5137579;27;20035;-78
2022/12/06 05:28:09;;;;;;;12.43;2.83;;;4.10;99.90;;;;;;5119122;27;20035;-81
2022/12/06 05:30:35;;;;;;;16.88;3.47;;;4.10;99.90;;;;;;5118023;27;20310;-80
2022/12/06 05:33:01;;;;;;;16.08;3.38;;;4.10;99.90;;;;;;5137153;27;20047;-79
2022/12/06 05:35:27;;;;;;;14.40;3.00;;;4.00;99.90;;;;;;5118313;27;20204;-80
2022/12/06 05:37:52;;;;;;;14.63;2.60;;;4.00;99.90;;;;;;5137158;27;20039;-81
2022/12/06 05:40:18;;;;;;;16.65;2.30;;;4.00;99.90;;;;;;5118327;27;20354;-79
2022/12/06 05:42:44;;;;;;;17.83;2.88;;;4.00;99.90;;;;;;5100902;27;20050;-79
2022/12/06 05:45:10;;;;;;;14.63;2.72;;;4.00;99.90;;;;;;5117678;27;20051;-81
2022/12/06 05:47:36;;;;;;;14.40;2.47;;;3.90;99.90;;;;;;5117672;27;20088;-80
2022/12/06 05:50:03;;;;;;;11.77;2.67;;;3.90;99.90;;;;;;5136178;27;20043;-80
2022/12/06 05:52:28;;;;;;;12.45;2.20;;;3.90;99.90;;;;;;5117772;27;20054;-79
2022/12/06 05:54:54;;;;;;;11.57;2.22;;;3.90;99.90;;;;;;5100313;27;20043;-80
2022/12/06 05:57:20;;;;;;;11.82;2.53;;;3.90;99.90;;;;;;5137366;27;20047;-80
2022/12/06 05:59:45;;;;;;;11.73;2.70;;;3.90;99.90;;;;;;5120992;27;20055;-80
2022/12/06 06:02:11;;;;;;;9.85;2.75;;;4.00;99.90;;;;;;5137579;27;20043;-81
2022/12/06 06:04:37;;;;;;;15.80;2.63;;;3.90;99.90;;;;;;5115222;28;20055;-82
2022/12/06 06:07:03;;;;;;;8.95;2.80;;;3.90;99.90;;;;;;5114878;28;20063;-81
2022/12/06 06:09:28;;;;;;;11.43;3.00;;;3.90;99.90;;;;;;5113945;28;20052;-81
2022/12/06 06:11:55;;;;;;;14.90;2.67;;;3.90;99.90;;;;;;5113893;28;20039;-80
2022/12/06 06:14:21;;;;;;;9.15;2.30;;;3.90;99.90;;;;;;5113361;28;20130;-81
2022/12/06 06:16:47;;;;;;;12.93;3.22;;;3.80;99.90;;;;;;5115247;28;20065;-79
2022/12/06 06:19:12;;;;;;;13.43;3.28;;;3.90;99.90;;;;;;5114819;28;20523;-79
2022/12/06 06:21:38;;;;;;;10.90;2.95;;;3.90;99.90;;;;;;5114525;28;20051;-80
2022/12/06 06:24:04;;;;;;;18.70;3.33;;;3.90;99.90;;;;;;5114812;28;20059;-79
2022/12/06 06:26:30;;;;;;;13.82;3.08;;;3.90;99.90;;;;;;5115108;27;20040;-78
2022/12/06 06:28:55;;;;;;;11.75;2.53;;;4.00;99.90;;;;;;5115424;28;20478;-79
2022/12/06 06:31:21;;;;;;;13.25;3.20;;;3.90;99.90;;;;;;5114830;28;20044;-79
2022/12/06 06:33:47;;;;;;;12.27;3.08;;;3.90;99.90;;;;;;5115082;28;20047;-78
2022/12/06 06:36:13;;;;;;;16.20;3.22;;;4.00;99.90;;;;;;5113376;28;20051;-79
2022/12/06 06:38:38;;;;;;;12.18;3.17;;;4.00;99.90;;;;;;5115220;28;20050;-78
2022/12/06 06:41:05;;;;;;;9.38;2.65;;;4.00;99.90;;;;;;5114374;28;20210;-79
2022/12/06 06:43:34;;;;;;;21.35;3.83;;;4.10;99.90;;;;;;5113395;28;20058;-78
2022/12/06 06:46:02;;;;;;;15.50;3.08;;;4.00;99.90;;;;;;5116072;28;20043;-78
2022/12/06 06:48:31;;;;;;;14.60;3.00;;;4.00;99.90;;;;;;5115150;28;20043;-79
2022/12/06 06:51:09;;;;;;;12.20;3.35;;;3.90;99.90;;;;;;5113700;28;20096;-79
2022/12/06 06:53:36;;;;;;;12.38;4.28;;;3.90;99.90;;;;;;5112756;28;20043;-79
2022/12/06 06:56:01;;;;;;;18.00;4.13;;;3.80;99.90;;;;;;5114525;28;20035;-80
2022/12/06 06:58:27;;;;;;;12.82;4.18;;;3.80;99.90;;;;;;5114311;28;20304;-80
2022/12/06 07:01:00;;;;;;;13.80;3.95;;;3.80;99.90;;;;;;5096550;28;20070;-80
2022/12/06 07:03:27;;;;;;;20.92;5.18;;;3.70;99.90;;;;;;5112628;28;20050;-78
2022/12/06 07:06:08;;;;;;;14.23;3.53;;;3.70;99.90;;;;;;5135121;27;20108;-78
2022/12/06 07:08:35;;;;;;;15.30;3.90;;;3.60;99.90;;;;;;5116832;27;20061;-79
2022/12/06 07:11:01;;;;;;;13.60;3.47;;;3.60;99.90;;;;;;5134546;27;20111;-78
2022/12/06 07:13:28;;;;;;;12.80;4.03;;;3.60;99.90;;;;;;5116086;27;20074;-78
2022/12/06 07:15:55;;;;;;;18.25;4.32;;;3.60;99.90;;;;;;5134386;27;20047;-79
2022/12/06 07:18:21;;;;;;;15.80;3.73;;;3.70;99.90;;;;;;5134305;27;20062;-78
2022/12/06 07:20:47;;;;;;;12.70;3.30;;;3.50;99.90;;;;;;5134799;27;20082;-79
2022/12/06 07:23:13;;;;;;;14.48;4.80;;;3.50;99.90;;;;;;5115823;27;20071;-78
2022/12/06 07:25:39;;;;;;;14.32;4.00;;;3.40;99.90;;;;;;5098348;28;20125;-79
2022/12/06 07:28:05;;;;;;;18.35;3.72;;;3.40;99.90;;;;;;5133693;27;20529;-78
2022/12/06 07:30:31;;;;;;;10.73;3.15;;;3.30;99.90;;;;;;5134390;27;20043;-78
2022/12/06 07:32:57;;;;;;;13.33;3.60;;;3.20;99.90;;;;;;5115601;27;20047;-79
2022/12/06 07:35:24;;;;;;;13.07;3.08;;;3.10;99.90;;;;;;5133927;27;20313;-79
2022/12/06 07:37:50;;;;;;;11.20;3.10;;;3.00;99.90;;;;;;5098737;27;20099;-78
2022/12/06 07:40:17;;;;;;;12.77;3.83;;;2.90;99.90;;;;;;5133973;27;20493;-76
2022/12/06 07:45:27;;;;;;;14.30;3.55;;;2.80;99.90;;;;;;5134028;27;20047;-79
2022/12/06 07:47:53;;;;;;;13.40;3.25;;;2.70;99.90;;;;;;5115645;27;20099;-78
2022/12/06 07:50:20;;;;;;;14.55;3.65;;;2.70;99.90;;;;;;5133840;27;20390;-78
2022/12/06 07:52:48;;;;;;;15.32;3.90;;;2.70;99.90;;;;;;5133953;27;20115;-79
2022/12/06 07:55:15;;;;;;;13.50;3.20;;;2.60;99.90;;;;;;5098048;27;20081;-82
2022/12/06 07:57:41;;;;;;;13.90;3.47;;;2.60;99.90;;;;;;5115525;28;20051;-80
2022/12/06 08:00:09;;;;;;;11.23;3.33;;;2.60;99.90;;;;;;5115774;28;20043;-80
2022/12/06 08:02:34;;;;;;;13.52;4.65;;;2.50;99.90;;;;;;5115865;28;20086;-80
2022/12/06 08:05:00;;;;;;;17.38;4.68;;;2.50;99.90;;;;;;5112590;28;20436;-79
2022/12/06 08:07:26;;;;;;;18.70;4.90;;;2.50;99.90;;;;;;5113568;28;20131;-78
2022/12/06 08:09:52;;;;;;;13.70;3.95;;;2.40;99.90;;;;;;5112042;28;20135;-78
2022/12/06 08:12:20;;;;;;;15.27;3.78;;;2.40;99.90;;;;;;5113399;28;20368;-79
2022/12/06 08:14:46;;;;;;;;;;;2.40;99.90;;;;;;5113970;28;20054;-79
2022/12/06 08:17:11;;;;;;;13.02;3.22;;;2.40;99.90;;;;;;5113001;28;19927;-79
2022/12/06 08:19:37;;;;;;;11.52;3.13;;;2.30;99.90;;;;;;5114843;28;20052;-80
2022/12/06 08:22:04;;;;;;;12.45;3.10;;;2.30;99.90;;;;;;5115043;28;20058;-80
2022/12/06 08:24:30;;;;;;;12.10;3.35;;;2.30;99.90;;;;;;5112739;28;20047;-80
2022/12/06 08:26:57;;;;;;;16.83;3.28;;;2.30;99.90;;;;;;5113292;28;20051;-78
2022/12/06 08:29:22;;;;;;;15.75;3.53;;;2.30;99.90;;;;;;5113092;28;20054;-78
2022/12/06 08:31:49;;;;;;;18.30;4.55;;;2.30;99.90;;;;;;5111710;28;20036;-79
2022/12/06 08:34:15;;;;;;;14.77;3.88;;;2.40;99.90;;;;;;5077643;28;20055;-78
2022/12/06 08:36:41;;;;;;;16.90;3.72;;;2.40;99.90;;;;;;5111800;28;20196;-78
2022/12/06 08:39:09;;;;;;;12.77;3.50;;;2.40;99.90;;;;;;5114163;28;20067;-78
2022/12/06 08:44:20;;;;;;;10.10;3.13;;;2.50;99.90;;;;;;5117518;28;20489;-79
2022/12/06 08:46:47;;;;;;;12.52;3.80;;;2.60;99.90;;;;;;5117315;28;20052;-78
2022/12/06 08:49:15;;;;;;;16.52;4.65;;;2.70;99.90;;;;;;5116727;28;20088;-78
2022/12/06 08:51:41;;;;;;;14.10;3.50;;;2.90;99.90;;;;;;5115665;28;20142;-78
2022/12/06 08:54:08;;;;;;;15.20;3.35;;;3.00;99.90;;;;;;5116993;28;20123;-79
2022/12/06 08:56:36;;;;;;;10.15;3.25;;;3.00;99.90;;;;;;5114621;28;20231;-77
2022/12/06 08:59:02;;;;;;;14.00;3.17;;;3.00;99.90;;;;;;5116477;28;20044;-78
2022/12/06 09:01:29;;;;;;;12.48;3.30;;;3.00;99.90;;;;;;5114811;28;20544;-78
2022/12/06 09:03:58;;;;;;;14.05;3.25;;;3.00;99.90;;;;;;5099841;27;20105;-82
2022/12/06 09:06:23;;;;;;;12.15;3.75;;;3.00;99.90;;;;;;5136615;27;20045;-79
2022/12/06 09:08:49;;;;;;;19.65;3.58;;;3.00;99.90;;;;;;5136464;27;20134;-79
2022/12/06 09:11:16;;;;;;;16.50;3.63;;;3.10;99.90;;;;;;5117863;27;20093;-77
2022/12/06 09:13:43;;;;;;;15.57;3.67;;;3.20;99.90;;;;;;5119073;27;20066;-77
2022/12/06 09:16:15;;;;;;;14.55;4.00;;;3.30;99.90;;;;;;5136377;27;20043;-79
2022/12/06 09:18:42;;;;;;;10.52;3.58;;;3.40;99.90;;;;;;5118947;27;20058;-78
2022/12/06 09:21:17;;;;;;;15.00;3.95;;;3.50;99.90;;;;;;5136391;27;20043;-78
2022/12/06 09:23:43;;;;;;;13.43;4.00;;;3.50;99.90;;;;;;5118150;27;20058;-78
2022/12/06 09:26:09;;;;;;;17.75;4.22;;;3.60;99.90;;;;;;5118068;27;20047;-80
2022/12/06 09:28:37;;;;;;;12.77;3.92;;;3.70;99.90;;;;;;5137417;27;20049;-78
2022/12/06 09:31:04;;;;;;;13.60;4.07;;;3.80;99.90;;;;;;5136766;27;20079;-78
2022/12/06 09:33:30;;;;;;;16.08;3.83;;;3.80;99.90;;;;;;5117455;27;20131;-79
2022/12/06 09:35:58;;;;;;;12.48;4.03;;;3.90;99.90;;;;;;5136189;27;20078;-78
2022/12/06 09:38:28;;;;;;;20.83;4.15;;;3.90;99.90;;;;;;5117592;27;20039;-78
2022/12/06 09:41:29;;;;;;;12.45;3.83;;;4.00;99.90;;;;;;5139619;27;20387;-77
2022/12/06 09:44:11;;;;;;;11.80;3.70;;;3.90;99.90;;;;;;5138686;27;20047;-77
2022/12/06 09:47:08;;;;;;;14.20;3.72;;;3.90;99.90;;;;;;5138705;27;20050;-77
2022/12/06 09:49:52;;;;;;;13.88;3.50;;;4.00;99.90;;;;;;5139132;27;20058;-77
2022/12/06 09:52:23;;;;;;;12.23;3.00;;;4.20;99.90;;;;;;5120272;27;20058;-76
2022/12/06 09:55:07;;;;;;;17.08;3.78;;;4.30;99.90;;;;;;5120930;27;20043;-77
2022/12/06 09:58:24;;;;;;;11.30;3.22;;;4.40;99.90;;;;;;5118734;27;20043;-78
2022/12/06 10:01:07;;;;;;;10.07;2.28;;;4.60;99.90;;;;;;5115269;27;20059;-78
2022/12/06 10:03:49;;;;;;;12.77;2.45;;;4.70;99.90;;;;;;5143681;27;20058;-77
2022/12/06 10:06:19;;;;;;;8.90;2.05;;;4.80;99.90;;;;;;5118263;27;20063;-77
2022/12/06 10:09:09;;;;;;;10.20;3.08;;;5.00;99.90;;;;;;5136223;27;20096;-78
2022/12/06 10:11:38;;;;;;;10.40;2.55;;;5.00;99.90;;;;;;5123384;27;20102;-78
2022/12/06 10:14:34;;;;;;;8.38;2.08;;;5.00;99.90;;;;;;5146773;27;20050;-78
2022/12/06 10:17:20;;;;;;;9.10;2.45;;;5.10;99.90;;;;;;5128557;27;20047;-78
2022/12/06 10:20:04;;;;;;;10.23;2.25;;;5.10;99.90;;;;;;5121907;27;20139;-78
2022/12/06 10:22:44;;;;;;;7.90;1.90;;;5.10;99.90;;;;;;5138916;27;20046;-78
2022/12/06 10:25:24;;;;;;;8.98;2.08;;;5.10;99.90;;;;;;5138196;27;20086;-78
2022/12/06 10:27:59;;;;;;;9.32;2.75;;;5.10;99.90;;;;;;5137043;27;20360;-78
2022/12/06 10:30:25;;;;;;;9.88;2.05;;;5.20;99.90;;;;;;5117480;27;20463;-79
2022/12/06 10:33:15;;;;;;;11.07;2.03;;;5.20;99.90;;;;;;5135188;27;20064;-77
2022/12/06 10:36:01;;;;;;;9.75;2.53;;;5.30;99.90;;;;;;5118070;27;20125;-79
2022/12/06 10:38:40;;;;;;;10.63;2.38;;;5.40;99.90;;;;;;5117362;27;20105;-81
2022/12/06 10:41:20;;;;;;;6.47;2.20;;;5.40;99.90;;;;;;5116684;27;20054;-79
2022/12/06 10:44:19;;;;;;;9.38;2.20;;;5.50;99.90;;;;;;5135459;27;20043;-78
2022/12/06 10:47:04;;;;;;;8.35;1.75;;;5.60;99.90;;;;;;5103029;27;20039;-78
2022/12/06 10:49:40;;;;;;;7.90;2.03;;;5.70;99.90;;;;;;5116600;27;20047;-79
2022/12/06 10:52:30;;;;;;;6.23;2.03;;;5.60;99.90;;;;;;5117000;27;20039;-77
2022/12/06 10:55:14;;;;;;;8.75;2.03;;;5.60;99.90;;;;;;5134501;27;20082;-80
2022/12/06 10:58:00;;;;;;;11.20;2.20;;;5.50;99.90;;;;;;5116836;27;20114;-78
2022/12/06 11:00:33;;;;;;;11.70;1.50;;;5.50;99.90;;;;;;5134558;27;20051;-78
2022/12/06 11:03:20;;;;;;;8.07;2.67;;;5.40;99.90;;;;;;5135193;27;20363;-80
2022/12/06 11:05:51;;;;;;;5.57;1.85;;;5.40;99.90;;;;;;5116018;27;20047;-78
2022/12/06 11:08:34;;;;;;;8.40;1.85;;;5.40;99.90;;;;;;5116357;27;20107;-80
2022/12/06 11:11:02;;;;;;;8.48;1.85;;;5.50;99.90;;;;;;5116337;27;20054;-80
2022/12/06 11:13:36;;;;;;;5.20;1.50;;;5.50;99.90;;;;;;5133974;27;20451;-80
2022/12/06 11:16:10;;;;;;;5.68;1.45;;;5.50;99.90;;;;;;5116571;27;20395;-79
2022/12/06 11:18:36;;;;;;;4.47;1.30;;;5.70;99.90;;;;;;5116136;27;20047;-80
2022/12/06 11:21:25;;;;;;;11.25;1.60;;;5.80;99.90;;;;;;5116152;27;20236;-77
2022/12/06 11:24:10;;;;;;;7.53;1.20;;;5.90;99.90;;;;;;5134180;27;20090;-79
2022/12/06 11:26:52;;;;;;;5.60;1.50;;;5.90;99.90;;;;;;5134114;27;20051;-79
2022/12/06 11:29:18;;;;;;;9.20;1.40;;;6.00;99.90;;;;;;5133767;27;20074;-78
2022/12/06 11:32:06;;;;;;;7.03;1.50;;;6.10;99.90;;;;;;5115822;27;20096;-78
2022/12/06 11:34:37;;;;;;;4.88;1.20;;;6.20;99.90;;;;;;5116151;27;20100;-79
2022/12/06 11:37:04;;;;;;;7.70;1.52;;;6.20;99.90;;;;;;5134712;27;20376;-79
2022/12/06 11:39:32;;;;;;;6.57;0.90;;;6.30;99.90;;;;;;5098743;27;20047;-80
2022/12/06 11:42:01;;;;;;;3.40;0.90;;;6.40;99.90;;;;;;5098755;27;20447;-81
2022/12/06 11:44:42;;;;;;;4.20;1.02;;;6.40;99.90;;;;;;5115406;27;20050;-80
2022/12/06 11:47:14;;;;;;;8.07;1.30;;;6.40;99.90;;;;;;5116474;27;20054;-80
2022/12/06 11:49:43;;;;;;;7.47;1.30;;;6.50;99.90;;;;;;5115483;28;20039;-80
2022/12/06 11:52:34;;;;;;;7.43;1.40;;;6.40;99.90;;;;;;5115895;27;20194;-81
2022/12/06 11:55:41;;;;;;;6.25;1.40;;;6.50;99.90;;;;;;5133605;27;20040;-81
2022/12/06 11:58:19;;;;;;;4.60;1.42;;;6.60;99.90;;;;;;5102603;27;20078;-80
2022/12/06 12:00:55;;;;;;;8.95;1.70;;;6.60;99.90;;;;;;5133803;28;20131;-80
2022/12/06 12:03:36;;;;;;;8.38;2.08;;;6.60;99.90;;;;;;5133722;28;20047;-80
2022/12/06 12:06:22;;;;;;;8.88;1.95;;;6.60;99.90;;;;;;5134257;27;20141;-80
2022/12/06 12:09:02;;;;;;;5.80;1.27;;;6.70;99.90;;;;;;5133788;28;20455;-80
2022/12/06 12:11:33;;;;;;;7.65;1.15;;;6.60;99.90;;;;;;5133340;27;20047;-80
2022/12/06 12:14:03;;;;;;;8.43;1.52;;;6.60;99.90;;;;;;5137435;27;20474;-80
2022/12/06 12:16:34;;;;;;;6.40;1.08;;;6.60;99.90;;;;;;5137655;27;20043;-81
2022/12/06 12:19:02;;;;;;;5.03;1.10;;;6.60;99.90;;;;;;5119884;27;20043;-79
2022/12/06 12:21:32;;;;;;;7.38;1.25;;;6.60;99.90;;;;;;5119706;27;20078;-79
2022/12/06 12:23:58;;;;;;;4.30;0.95;;;6.60;99.90;;;;;;5137765;27;20043;-79
2022/12/06 12:26:37;;;;;;;9.55;1.52;;;6.60;99.90;;;;;;5119162;27;20039;-80
2022/12/06 12:29:18;;;;;;;6.00;1.23;;;6.60;99.90;;;;;;5119197;27;20047;-81
2022/12/06 12:31:58;;;;;;;8.18;1.60;;;6.60;99.90;;;;;;5103064;27;20096;-79
2022/12/06 12:34:29;;;;;;;9.80;1.90;;;6.60;99.90;;;;;;5137271;27;20050;-79
2022/12/06 12:37:01;;;;;;;6.20;1.40;;;6.60;99.90;;;;;;5119628;27;20055;-80
2022/12/06 12:39:31;;;;;;;10.02;1.67;;;6.60;99.90;;;;;;5118862;27;20459;-80
2022/12/06 12:41:58;;;;;;;5.32;1.38;;;6.60;99.90;;;;;;5118729;27;20047;-80
2022/12/06 12:44:31;;;;;;;7.03;1.23;;;6.60;99.90;;;;;;5137338;27;20043;-78
2022/12/06 12:47:00;;;;;;;8.82;1.85;;;6.60;99.90;;;;;;5119207;27;20058;-79
2022/12/06 12:49:35;;;;;;;6.80;1.55;;;6.60;99.90;;;;;;5102222;27;20126;-79
2022/12/06 12:52:22;;;;;;;15.38;1.77;;;6.70;99.90;;;;;;5119457;27;20043;-80
2022/12/06 12:55:11;;;;;;;7.05;1.42;;;6.70;99.90;;;;;;5102621;27;20090;-80
2022/12/06 12:57:37;;;;;;;6.18;1.30;;;6.70;99.90;;;;;;5128714;27;20096;-78
2022/12/06 13:00:04;;;;;;;9.75;1.55;;;6.60;99.90;;;;;;5118720;27;20047;-79
2022/12/06 13:02:30;;;;;;;5.40;1.33;;;6.50;99.90;;;;;;5136993;27;20104;-78
2022/12/06 13:05:01;;;;;;;8.30;1.40;;;6.40;99.90;;;;;;5115002;28;20144;-79
2022/12/06 13:07:32;;;;;;;7.63;1.30;;;6.40;99.90;;;;;;5116805;28;20131;-78
2022/12/06 13:10:18;;;;;;;7.88;1.60;;;6.40;99.90;;;;;;5116155;28;20478;-78
2022/12/06 13:12:51;;;;;;;7.15;2.00;;;6.30;99.90;;;;;;5116150;28;20043;-79
2022/12/06 13:15:56;;;;;;;10.88;1.48;;;6.30;99.90;;;;;;5116794;28;20047;-80
2022/12/06 13:18:26;;;;;;;9.20;1.20;;;6.40;99.90;;;;;;5092491;28;20391;-78
2022/12/06 13:20:54;;;;;;;5.82;1.40;;;6.40;99.90;;;;;;5116623;28;20088;-79
2022/12/06 13:23:26;;;;;;;5.95;1.20;;;6.40;99.90;;;;;;5097128;28;20044;-78
2022/12/06 13:26:13;;;;;;;8.77;1.27;;;6.30;99.90;;;;;;5115937;28;20057;-78
2022/12/06 13:28:47;;;;;;;7.20;2.08;;;6.30;99.90;;;;;;5116009;28;20076;-80
2022/12/06 13:31:18;;;;;;;7.28;1.60;;;6.40;99.90;;;;;;5116595;28;20084;-77
2022/12/06 13:33:51;;;;;;;6.72;1.35;;;6.40;99.90;;;;;;5116782;28;20043;-79
2022/12/06 13:36:18;;;;;;;7.05;1.20;;;6.40;99.90;;;;;;5115784;28;20055;-80
2022/12/06 13:38:44;;;;;;;;;;;6.40;99.90;;;;;;5116285;28;20475;-79